EW8016 Weather Reports


Display with metric or nautical units.
time (UTC)temp
F
wind
direction
speed
MPH
gust
MPH
rain 1hr
in
rain 24hr
in
rain mn
in
humidity
%
barometer
mb
20200128143503 42 246 10.0 22.0 0.00 0.23 0.14 81 993.8
20200128143004 43 246 11.0 24.0 0.00 0.23 0.14 81 993.7
20200128142503 43 252 11.0 24.0 0.00 0.23 0.14 81 993.4
20200128142003 43 257 9.0 21.0 0.00 0.23 0.14 81 993.3
20200128141503 43 259 9.0 24.0 0.00 0.23 0.14 81 993.2
20200128141004 43 269 10.0 24.0 0.00 0.23 0.14 82 993.1
20200128140503 43 271 10.0 24.0 0.00 0.23 0.14 83 993.1
20200128140003 42 275 9.0 20.0 0.00 0.23 0.14 83 993.1
20200128135503 42 276 10.0 29.0 0.00 0.23 0.14 83 993.0
20200128135003 42 273 11.0 29.0 0.00 0.23 0.14 82 992.9
20200128134503 43 274 10.0 21.0 0.00 0.23 0.14 83 992.8
20200128134003 43 267 9.0 19.0 0.00 0.23 0.14 84 992.7
20200128133503 42 257 9.0 19.0 0.00 0.23 0.14 84 992.6
20200128133003 42 253 9.0 19.0 0.00 0.23 0.14 84 992.5
20200128132503 42 256 9.0 25.0 0.00 0.23 0.14 85 992.4
20200128132003 42 249 11.0 26.0 0.00 0.23 0.14 84 992.3
20200128131504 42 242 10.0 26.0 0.02 0.23 0.14 85 992.1
20200128131004 42 243 10.0 26.0 0.03 0.23 0.14 86 992.0
20200128130504 42 248 10.0 26.0 0.03 0.23 0.14 86 991.8
20200128130004 42 260 8.0 18.0 0.04 0.23 0.14 88 991.7
20200128125503 42 267 8.0 16.0 0.05 0.23 0.14 89 991.7
20200128125003 42 267 9.0 16.0 0.06 0.23 0.14 89 991.5
20200128124503 42 261 9.0 20.0 0.06 0.23 0.14 90 991.4
20200128124003 42 263 9.0 21.0 0.06 0.23 0.14 91 991.6
20200128123503 41 270 8.0 21.0 0.06 0.23 0.14 93 991.4
20200128123003 40 270 7.0 18.0 0.07 0.23 0.14 94 991.3
20200128122503 39 267 9.0 21.0 0.07 0.23 0.14 92 991.3
20200128122003 39 268 12.0 24.0 0.07 0.23 0.14 92 991.2
20200128121503 40 265 11.0 24.0 0.06 0.21 0.13 93 991.1
20200128121003 40 265 9.0 23.0 0.05 0.20 0.11 93 991.2
20200128120503 40 276 9.0 15.0 0.04 0.19 0.10 94 991.0
20200128120003 40 280 8.0 14.0 0.06 0.19 0.10 94 990.8
20200128115503 40 278 10.0 21.0 0.05 0.18 0.09 93 990.9
20200128115003 40 275 11.0 21.0 0.05 0.17 0.09 93 990.8
20200128114503 40 255 12.0 21.0 0.05 0.17 0.08 94 990.7
20200128114003 40 238 9.0 21.0 0.05 0.17 0.08 95 990.3
20200128113503 40 227 6.0 12.0 0.06 0.17 0.08 95 990.4
20200128113004 40 232 6.0 17.0 0.05 0.16 0.07 95 990.3
20200128112504 40 240 8.0 17.0 0.05 0.16 0.07 95 990.3
20200128112004 40 240 8.0 16.0 0.05 0.16 0.07 94 990.3
20200128111503 40 243 8.0 18.0 0.05 0.16 0.07 94 990.3
20200128111003 40 243 8.0 18.0 0.04 0.15 0.06 94 990.3
20200128110503 40 239 9.0 18.0 0.04 0.15 0.06 94 990.3
20200128110003 40 242 8.0 18.0 0.03 0.13 0.05 94 990.2
20200128105503 40 243 8.0 16.0 0.03 0.13 0.05 94 990.1
20200128105003 40 235 8.0 15.0 0.02 0.13 0.04 94 989.9
20200128104503 40 230 8.0 19.0 0.02 0.12 0.03 93 989.8
20200128104003 40 235 8.0 19.0 0.02 0.12 0.03 93 989.8
20200128103503 40 237 10.0 21.0 0.01 0.11 0.02 93 989.5
20200128103003 41 229 10.0 22.0 0.01 0.11 0.02 93 989.5
20200128102503 41 222 7.0 22.0 0.01 0.11 0.02 94 989.4
20200128102003 41 231 7.0 16.0 0.01 0.11 0.02 94 989.2
20200128101503 41 238 8.0 16.0 0.01 0.11 0.02 94 989.2
20200128101004 41 238 8.0 15.0 0.01 0.11 0.02 94 989.0
20200128100504 41 238 8.0 21.0 0.01 0.11 0.02 94 989.0
20200128100004 41 232 8.0 21.0 0.00 0.10 0.02 93 988.9
20200128095504 41 231 8.0 18.0 0.00 0.10 0.02 93 988.8
20200128095004 41 233 9.0 22.0 0.01 0.10 0.02 93 988.8
20200128094504 41 226 10.0 22.0 0.01 0.10 0.02 93 988.6
20200128094004 41 225 8.0 19.0 0.02 0.10 0.02 93 988.6
20200128093504 41 230 8.0 21.0 0.02 0.10 0.02 93 988.5
20200128093004 41 225 8.0 21.0 0.02 0.10 0.02 93 988.5
20200128092503 41 214 8.0 18.0 0.02 0.10 0.02 93 988.4
20200128092003 41 222 9.0 18.0 0.02 0.10 0.02 93 988.3
20200128091503 41 227 9.0 21.0 0.02 0.10 0.02 94 988.3
20200128091003 41 222 8.0 21.0 0.02 0.10 0.02 93 988.1
20200128090503 40 212 7.0 19.0 0.02 0.10 0.02 93 988.1
20200128090004 40 209 7.0 18.0 0.02 0.10 0.02 93 988.1
20200128085503 40 219 8.0 18.0 0.02 0.10 0.02 92 988.0
20200128085003 40 225 8.0 19.0 0.01 0.09 0.01 92 988.1
20200128084503 40 225 9.0 19.0 0.01 0.09 0.01 91 988.0
20200128084003 41 224 9.0 18.0 0.00 0.09 0.00 90 988.1
20200128083503 41 220 10.0 22.0 0.00 0.09 0.00 89 988.1
20200128083003 42 207 10.0 24.0 0.00 0.09 0.00 89 988.1
20200128082503 42 193 10.0 25.0 0.00 0.09 0.00 90 987.9
20200128082003 43 183 8.0 25.0 0.00 0.09 0.00 91 987.7
20200128081503 43 179 7.0 15.0 0.00 0.09 0.00 91 987.7
20200128081004 43 175 7.0 15.0 0.00 0.09 0.00 91 987.7
20200128080504 43 172 7.0 15.0 0.00 0.09 0.00 92 987.8
20200128080004 43 166 8.0 16.0 0.00 0.09 0.00 91 987.8
20200128075504 43 168 8.0 16.0 0.00 0.09 0.00 92 987.8
20200128075004 43 168 8.0 19.0 0.00 0.09 0.00 91 987.9
20200128074504 43 165 7.0 19.0 0.00 0.09 0.00 92 988.0
20200128074004 43 166 8.0 17.0 0.00 0.09 0.00 92 988.1
20200128073504 43 165 8.0 17.0 0.00 0.09 0.00 92 988.1
20200128073005 43 167 7.0 16.0 0.00 0.09 0.00 92 988.1
20200128072504 43 166 8.0 16.0 0.00 0.09 0.00 92 988.2
20200128072004 43 165 8.0 17.0 0.00 0.09 0.00 93 988.2
20200128071504 43 167 9.0 17.0 0.00 0.09 0.00 93 988.3
20200128071003 43 166 9.0 17.0 0.00 0.09 0.00 93 988.4
20200128070503 43 164 9.0 19.0 0.00 0.09 0.00 93 988.4
20200128070004 43 166 8.0 19.0 0.00 0.09 0.00 93 988.5
20200128065503 43 168 8.0 17.0 0.00 0.09 0.00 93 988.5
20200128065003 43 163 9.0 18.0 0.00 0.09 0.00 93 988.6
20200128064503 43 164 8.0 18.0 0.00 0.09 0.00 94 988.8
20200128064003 43 167 7.0 15.0 0.00 0.09 0.00 94 988.8
20200128063503 43 165 8.0 15.0 0.00 0.09 0.00 94 989.0
20200128063003 42 166 8.0 15.0 0.00 0.09 0.00 94 989.1
20200128062503 42 168 7.0 15.0 0.00 0.09 0.00 94 989.1
20200128062003 42 168 6.0 11.0 0.00 0.09 0.00 93 989.2
20200128061503 42 164 6.0 11.0 0.00 0.09 0.00 93 989.3
20200128061003 43 164 7.0 13.0 0.00 0.09 0.00 93 989.4
20200128060503 42 172 6.0 13.0 0.00 0.09 0.00 93 989.5
20200128060003 42 175 5.0 12.0 0.00 0.09 0.00 93 989.6
20200128055503 42 172 5.0 11.0 0.00 0.09 0.00 93 989.7
20200128055003 42 176 6.0 11.0 0.00 0.09 0.00 93 989.7
20200128054503 42 177 6.0 15.0 0.00 0.09 0.00 93 989.8
20200128054004 42 171 6.0 15.0 0.00 0.09 0.00 93 989.9
20200128053503 42 168 6.0 12.0 0.00 0.09 0.00 93 989.9
20200128053003 42 169 7.0 14.0 0.00 0.09 0.00 93 990.0
20200128052503 42 169 7.0 14.0 0.00 0.09 0.00 93 990.0
20200128052004 42 169 6.0 11.0 0.00 0.09 0.00 93 990.1
20200128051504 42 169 5.0 14.0 0.00 0.09 0.00 93 990.3
20200128051003 42 170 6.0 14.0 0.00 0.09 0.00 93 990.5
20200128050503 42 172 6.0 13.0 0.00 0.10 0.00 93 990.6
20200128050003 42 175 6.0 14.0 0.00 0.10 0.00 93 990.6
20200128045503 42 172 6.0 14.0 0.00 0.10 0.00 92 990.7
20200128045003 42 173 6.0 12.0 0.00 0.10 0.00 92 990.7
20200128044503 42 175 5.0 10.0 0.00 0.10 0.00 92 990.8
20200128044003 42 175 6.0 11.0 0.00 0.10 0.00 91 991.0
20200128043503 42 178 6.0 11.0 0.00 0.10 0.00 91 991.0
20200128043003 42 180 6.0 14.0 0.00 0.10 0.00 91 991.2
20200128042503 43 193 6.0 14.0 0.00 0.10 0.00 91 991.2
20200128042003 43 198 7.0 12.0 0.00 0.10 0.00 90 991.2
20200128041504 43 195 6.0 12.0 0.00 0.11 0.00 90 991.2
20200128041004 43 192 6.0 13.0 0.00 0.11 0.00 90 991.2
20200128040504 43 195 6.0 13.0 0.00 0.11 0.00 90 991.3
20200128040003 43 198 6.0 12.0 0.00 0.11 0.00 90 991.4
20200128035503 44 201 6.0 17.0 0.00 0.11 0.00 90 991.5
20200128035003 44 204 7.0 17.0 0.00 0.11 0.00 89 991.4
20200128034503 44 193 7.0 16.0 0.00 0.11 0.00 90 991.4
20200128034003 44 192 7.0 16.0 0.00 0.12 0.00 90 991.5
20200128033503 45 192 8.0 16.0 0.00 0.12 0.00 91 991.4
20200128033003 45 199 7.0 16.0 0.00 0.13 0.00 91 991.5
20200128032504 45 202 6.0 12.0 0.00 0.13 0.00 91 991.6
20200128032003 45 193 6.0 15.0 0.00 0.13 0.00 91 991.5
20200128031503 45 194 6.0 15.0 0.00 0.13 0.00 91 991.5
20200128031003 45 190 4.0 8.0 0.00 0.14 0.00 91 991.6
20200128030503 45 204 4.0 12.0 0.00 0.14 0.00 91 991.7
20200128030003 45 213 5.0 12.0 0.00 0.14 0.00 91 991.8
20200128025503 45 206 5.0 12.0 0.00 0.15 0.00 91 991.9
20200128025003 45 206 5.0 12.0 0.00 0.15 0.00 92 991.9
20200128024503 45 214 5.0 11.0 0.00 0.15 0.00 92 991.9
20200128024003 45 218 4.0 11.0 0.00 0.16 0.00 92 991.9
20200128023503 45 213 4.0 9.0 0.00 0.16 0.00 92 992.0
20200128023003 44 216 5.0 11.0 0.00 0.16 0.00 92 992.0
20200128022504 45 217 5.0 11.0 0.00 0.16 0.00 91 992.0
20200128022004 45 221 6.0 13.0 0.00 0.16 0.00 91 992.1
20200128021504 45 237 6.0 13.0 0.00 0.16 0.00 91 992.2
20200128021003 45 244 6.0 14.0 0.00 0.16 0.00 91 992.3
20200128020503 45 243 7.0 16.0 0.00 0.16 0.00 91 992.4
20200128020003 45 239 7.0 16.0 0.00 0.16 0.00 91 992.3
20200128015503 45 240 8.0 18.0 0.00 0.16 0.00 91 992.2
20200128015003 44 243 8.0 18.0 0.00 0.16 0.00 91 992.3
20200128014503 44 232 7.0 15.0 0.00 0.16 0.00 91 992.3
20200128014003 45 226 6.0 15.0 0.00 0.17 0.00 90 992.2
20200128013503 45 231 6.0 14.0 0.00 0.17 0.00 90 992.1
20200128013003 45 229 7.0 17.0 0.00 0.17 0.00 90 992.1
20200128012503 45 233 7.0 17.0 0.00 0.17 0.00 90 992.2
20200128012003 45 241 8.0 16.0 0.00 0.17 0.00 90 992.2
20200128011503 45 236 8.0 16.0 0.00 0.17 0.00 89 992.2
20200128011004 45 223 8.0 20.0 0.00 0.17 0.00 89 992.1
20200128010504 45 222 8.0 20.0 0.00 0.17 0.00 90 992.1
20200128010004 46 232 8.0 17.0 0.00 0.17 0.00 90 992.1
20200128005504 46 240 8.0 19.0 0.00 0.17 0.00 90 992.2
20200128005003 46 237 9.0 20.0 0.00 0.17 0.00 91 992.1
20200128004504 46 222 10.0 20.0 0.00 0.17 0.00 91 992.0
20200128004004 46 200 9.0 26.0 0.00 0.17 0.00 92 992.1
20200128003503 46 187 9.0 26.0 0.00 0.17 0.00 94 992.1
20200128003003 46 185 8.0 18.0 0.00 0.17 0.00 94 992.0
20200128002503 46 185 8.0 20.0 0.00 0.17 0.00 94 991.9
20200128002003 46 176 9.0 20.0 0.00 0.17 0.00 94 991.9
20200128001503 46 168 9.0 17.0 0.00 0.17 0.00 94 991.8
20200128001003 45 168 9.0 16.0 0.00 0.17 0.00 95 991.9
20200128000503 45 170 9.0 16.0 0.00 0.17 0.00 94 991.9
20200128000003 45 170 9.0 20.0 0.00 0.17 0.00 94 992.0
20200127235503 45 170 10.0 20.0 0.00 0.17 0.00 94 992.2
20200127235003 45 168 10.0 20.0 0.01 0.17 0.00 95 992.4
20200127234504 45 166 12.0 24.0 0.01 0.17 0.00 95 992.4
20200127234004 45 165 13.0 27.0 0.01 0.17 0.00 95 992.5
20200127233504 45 166 13.0 27.0 0.01 0.17 0.00 95 992.6
20200127233004 45 166 12.0 23.0 0.01 0.17 0.00 95 992.7
20200127232504 45 163 10.0 24.0 0.02 0.17 0.00 95 992.7
20200127232004 45 162 11.0 24.0 0.02 0.17 0.00 95 992.9
20200127231504 45 159 11.0 23.0 0.03 0.17 0.00 95 992.9
20200127231003 45 163 11.0 23.0 0.04 0.17 0.00 95 993.0
20200127230504 45 164 11.0 22.0 0.05 0.17 0.00 95 993.1
20200127230004 45 161 10.0 22.0 0.05 0.17 0.00 95 993.1
20200127225503 45 160 9.0 19.0 0.06 0.17 0.17 95 993.4
20200127225003 45 150 9.0 19.0 0.05 0.16 0.16 95 993.2
20200127224503 45 148 9.0 16.0 0.05 0.16 0.16 95 993.3
20200127224003 45 150 9.0 19.0 0.06 0.16 0.16 95 993.5
20200127223503 45 150 9.0 19.0 0.06 0.16 0.16 95 993.7
20200127223003 45 150 8.0 17.0 0.06 0.16 0.16 96 993.9
20200127222503 45 151 8.0 17.0 0.05 0.15 0.15 96 994.1
20200127222003 45 150 7.0 14.0 0.04 0.14 0.14 95 994.4
20200127221503 45 150 6.0 14.0 0.03 0.13 0.13 95 994.6
20200127221003 45 151 6.0 12.0 0.02 0.13 0.13 95 994.7
20200127220503 45 149 6.0 13.0 0.02 0.12 0.12 95 995.0
20200127220003 45 149 6.0 13.0 0.02 0.12 0.12 95 995.1
20200127215504 45 150 7.0 15.0 0.01 0.11 0.11 95 995.3
20200127215004 45 149 7.0 15.0 0.01 0.11 0.11 95 995.3
20200127214504 45 149 7.0 16.0 0.01 0.11 0.11 94 995.4
20200127214004 45 148 7.0 16.0 0.00 0.10 0.10 94 995.6
20200127213503 45 148 9.0 16.0 0.00 0.10 0.10 94 995.7
20200127213003 45 150 9.0 16.0 0.00 0.10 0.10 94 995.9
20200127212503 45 152 7.0 16.0 0.00 0.10 0.10 94 996.0
20200127212003 45 152 7.0 14.0 0.00 0.10 0.10 94 996.1
20200127211503 45 152 7.0 14.0 0.00 0.10 0.10 94 996.2
20200127211004 45 152 6.0 13.0 0.00 0.10 0.10 94 996.4
20200127210504 45 156 5.0 10.0 0.01 0.10 0.10 94 996.5
20200127210004 45 157 6.0 11.0 0.01 0.10 0.10 94 996.7
20200127205503 45 154 7.0 12.0 0.01 0.10 0.10 94 997.0
20200127205003 45 149 7.0 14.0 0.02 0.10 0.10 94 997.1
20200127204503 45 148 8.0 15.0 0.02 0.10 0.10 94 997.3
20200127204003 45 151 9.0 18.0 0.02 0.10 0.10 94 997.4
20200127203503 45 153 8.0 18.0 0.02 0.10 0.10 94 997.6
20200127203003 45 151 7.0 15.0 0.02 0.10 0.10 94 997.7
20200127202503 45 149 8.0 17.0 0.02 0.10 0.10 94 997.7
20200127202003 45 150 8.0 17.0 0.02 0.10 0.10 94 997.7
20200127201503 45 151 7.0 14.0 0.02 0.10 0.10 95 997.9
20200127201003 45 151 7.0 14.0 0.02 0.10 0.10 95 998.0
20200127200503 45 151 6.0 14.0 0.01 0.09 0.09 95 998.1
20200127200003 45 151 7.0 14.0 0.02 0.09 0.09 95 998.2
20200127195503 45 153 7.0 11.0 0.02 0.09 0.09 95 998.4
20200127195003 45 154 6.0 11.0 0.01 0.09 0.09 95 998.5
20200127194503 45 151 7.0 13.0 0.01 0.09 0.09 95 998.7
20200127194003 45 149 7.0 13.0 0.01 0.09 0.09 95 998.8
20200127193504 45 149 5.0 11.0 0.01 0.09 0.09 95 999.0
20200127193004 45 153 5.0 10.0 0.01 0.09 0.09 94 999.1
20200127192503 45 152 6.0 12.0 0.01 0.09 0.09 95 999.1
20200127192003 45 150 5.0 12.0 0.01 0.09 0.09 95 999.2
20200127191503 45 152 5.0 11.0 0.01 0.09 0.09 95 999.4
20200127191003 45 155 5.0 11.0 0.01 0.09 0.09 95 999.5
20200127190503 45 158 5.0 11.0 0.01 0.09 0.09 95 999.6
20200127190003 45 158 5.0 12.0 0.00 0.08 0.08 95 999.8
20200127185503 45 159 5.0 12.0 0.00 0.08 0.08 95 999.9
20200127185004 45 159 5.0 9.0 0.00 0.08 0.08 95 999.9
20200127184503 45 158 4.0 9.0 0.00 0.08 0.08 95 1000.0
20200127184003 45 157 5.0 9.0 0.00 0.08 0.08 95 1000.1
20200127183503 45 153 5.0 10.0 0.00 0.08 0.08 95 1000.1
20200127183003 45 151 5.0 10.0 0.00 0.08 0.08 95 1000.3
20200127182503 45 149 5.0 12.0 0.00 0.08 0.08 95 1000.4
20200127182003 45 152 5.0 12.0 0.00 0.08 0.08 95 1000.4
20200127181503 45 153 4.0 9.0 0.00 0.08 0.08 95 1000.6
20200127181004 45 153 4.0 8.0 0.00 0.08 0.08 95 1000.7
20200127180503 45 156 3.0 6.0 0.00 0.08 0.08 95 1000.8
20200127180004 45 157 3.0 7.0 0.00 0.08 0.08 95 1000.9
20200127175503 46 156 3.0 7.0 0.00 0.08 0.08 95 1001.0
20200127175004 46 158 3.0 7.0 0.00 0.08 0.08 95 1001.2
20200127174503 46 162 3.0 8.0 0.00 0.08 0.08 95 1001.3
20200127174003 46 162 4.0 8.0 0.00 0.08 0.08 95 1001.5
20200127173503 46 157 4.0 7.0 0.00 0.08 0.08 95 1001.4
20200127173003 46 159 4.0 8.0 0.00 0.08 0.08 95 1001.4
20200127172503 46 157 5.0 10.0 0.00 0.08 0.08 95 1001.4
20200127172003 46 156 5.0 10.0 0.00 0.08 0.08 95 1001.5
20200127171503 46 156 5.0 10.0 0.00 0.08 0.08 95 1001.5
20200127171003 46 154 4.0 9.0 0.00 0.08 0.08 95 1001.5
20200127170503 46 154 4.0 9.0 0.00 0.08 0.08 95 1001.7
20200127170003 46 156 3.0 8.0 0.00 0.08 0.08 95 1001.7
20200127165503 46 158 3.0 9.0 0.00 0.08 0.08 95 1001.8
20200127165004 46 156 3.0 9.0 0.00 0.08 0.08 95 1001.9
20200127164504 46 155 3.0 7.0 0.00 0.08 0.08 95 1002.1
20200127164003 46 153 3.0 8.0 0.00 0.08 0.08 95 1002.0
20200127163504 46 156 3.0 8.0 0.00 0.08 0.08 95 1002.0
20200127163004 47 160 3.0 7.0 0.00 0.08 0.08 95 1002.1
20200127162503 47 159 4.0 7.0 0.00 0.08 0.08 94 1002.1
20200127162004 47 161 4.0 7.0 0.00 0.08 0.08 94 1002.2
20200127161503 47 164 4.0 7.0 0.00 0.08 0.08 94 1002.2
20200127161003 47 163 4.0 9.0 0.00 0.08 0.08 94 1002.3
20200127160503 47 162 4.0 9.0 0.00 0.08 0.08 94 1002.3
20200127160003 47 164 4.0 8.0 0.00 0.08 0.08 94 1002.4
20200127155503 47 166 4.0 10.0 0.00 0.08 0.08 94 1002.5
20200127155004 47 165 5.0 10.0 0.00 0.08 0.08 94 1002.6
20200127154503 47 165 4.0 9.0 0.00 0.08 0.08 94 1002.6
20200127154003 47 164 4.0 8.0 0.00 0.08 0.08 94 1002.6
20200127153503 47 166 4.0 8.0 0.00 0.08 0.08 94 1002.8
20200127153003 47 168 5.0 10.0 0.00 0.08 0.08 94 1002.8
20200127152503 47 165 5.0 10.0 0.00 0.08 0.08 94 1002.8
20200127152003 47 164 5.0 10.0 0.00 0.08 0.08 94 1002.8
20200127151503 47 166 5.0 10.0 0.00 0.08 0.08 94 1002.9
20200127151003 48 164 4.0 10.0 0.00 0.08 0.08 94 1003.0
20200127150503 48 164 4.0 8.0 0.00 0.08 0.08 94 1003.1
20200127150003 48 171 4.0 8.0 0.00 0.08 0.08 94 1003.2
20200127145503 48 176 3.0 7.0 0.00 0.08 0.08 94 1003.2
20200127145003 48 178 3.0 7.0 0.00 0.08 0.08 94 1003.3
20200127144504 48 182 4.0 7.0 0.00 0.08 0.08 94 1003.3
20200127144004 48 181 3.0 7.0 0.00 0.08 0.08 94 1003.2